Time;durP1;ratioP1;P1;durP2;ratioP2;P2;SDS_P1;SDS_P2;PMS_P1;PMS_P2;Temp;Humidity;BMP_temperature;BMP_pressure;BME280_temperature;BME280_humidity;BME280_pressure;Samples;Min_cycle;Max_cycle;Signal;HPM_P1;HPM_P2
2022/05/09 00:01:48;;;;;;;0.10;0.10;;;;;;;;;;5043978;28;20459;-74
2022/05/09 00:04:14;;;;;;;0.00;0.00;;;;;;;;;;5047316;28;20395;-74
2022/05/09 00:06:40;;;;;;;9.85;0.82;;;;;;;;;;5047249;28;20164;-74
2022/05/09 00:09:06;;;;;;;0.10;0.10;;;;;;;;;;5051911;28;20024;-75
2022/05/09 00:11:32;;;;;;;1.08;0.80;;;;;;;;;;5048971;28;20029;-73
2022/05/09 00:13:58;;;;;;;0.10;0.10;;;;;;;;;;5047114;28;20482;-74
2022/05/09 00:16:24;;;;;;;2.20;0.10;;;;;;;;;;5046828;28;20032;-74
2022/05/09 00:18:50;;;;;;;0.50;0.50;;;;;;;;;;5048822;28;20028;-74
2022/05/09 00:21:16;;;;;;;1.48;0.68;;;;;;;;;;5047374;28;20030;-74
2022/05/09 00:23:42;;;;;;;1.38;0.85;;;;;;;;;;5050526;28;20033;-74
2022/05/09 00:26:08;;;;;;;0.52;0.52;;;;;;;;;;5046939;28;20766;-74
2022/05/09 00:28:34;;;;;;;0.43;0.43;;;;;;;;;;5049823;28;20078;-74
2022/05/09 00:31:00;;;;;;;0.13;0.13;;;;;;;;;;5050179;28;20399;-74
2022/05/09 00:33:26;;;;;;;0.00;0.00;;;;;;;;;;5050449;28;20028;-74
2022/05/09 00:35:53;;;;;;;0.10;0.10;;;;;;;;;;5046860;28;20092;-75
2022/05/09 00:38:19;;;;;;;0.22;0.22;;;;;;;;;;5047967;28;20021;-74
2022/05/09 00:41:28;;;;;;;0.03;0.03;;;;;;;;;;5047974;28;20460;-74
2022/05/09 00:43:33;;;;;;;1.27;0.55;;;;;;;;;;5047764;28;20045;-75
2022/05/09 00:45:59;;;;;;;0.15;0.15;;;;;;;;;;5048926;28;20041;-74
2022/05/09 00:48:25;;;;;;;0.10;0.10;;;;;;;;;;5046424;28;20116;-74
2022/05/09 00:50:52;;;;;;;0.35;0.35;;;;;;;;;;5046277;28;20067;-74
2022/05/09 00:53:18;;;;;;;4.10;1.40;;;;;;;;;;5049643;28;20521;-74
2022/05/09 00:55:49;;;;;;;0.00;0.00;;;;;;;;;;5049975;28;20120;-74
2022/05/09 00:58:26;;;;;;;1.38;1.27;;;;;;;;;;5044129;28;20855;-74
2022/05/09 01:00:52;;;;;;;0.80;0.20;;;;;;;;;;5047696;28;20037;-75
2022/05/09 01:03:22;;;;;;;0.13;0.13;;;;;;;;;;5049070;28;20449;-74
2022/05/09 01:05:50;;;;;;;0.20;0.20;;;;;;;;;;5049084;28;20040;-74
2022/05/09 01:08:19;;;;;;;0.68;0.68;;;;;;;;;;5047740;28;20044;-74
2022/05/09 01:10:46;;;;;;;0.40;0.40;;;;;;;;;;5044595;28;20029;-74
2022/05/09 01:13:13;;;;;;;0.77;0.70;;;;;;;;;;5043562;28;20036;-74
2022/05/09 01:15:40;;;;;;;0.00;0.00;;;;;;;;;;5045225;28;20554;-75
2022/05/09 01:18:08;;;;;;;0.10;0.10;;;;;;;;;;5047624;28;20025;-74
2022/05/09 01:20:33;;;;;;;0.10;0.10;;;;;;;;;;5043204;28;20499;-74
2022/05/09 01:23:00;;;;;;;1.65;0.98;;;;;;;;;;5050714;28;20033;-74
2022/05/09 01:25:29;;;;;;;0.10;0.10;;;;;;;;;;5050692;28;20149;-75
2022/05/09 01:27:55;;;;;;;2.45;1.10;;;;;;;;;;5043037;28;20064;-74
2022/05/09 01:30:23;;;;;;;0.50;0.40;;;;;;;;;;5046050;28;20029;-74
2022/05/09 01:33:00;;;;;;;0.10;0.10;;;;;;;;;;5049722;28;20044;-74
2022/05/09 01:35:32;;;;;;;0.38;0.38;;;;;;;;;;5043974;28;20028;-74
2022/05/09 01:38:12;;;;;;;1.55;0.85;;;;;;;;;;5040074;28;20388;-74
2022/05/09 01:40:37;;;;;;;0.13;0.13;;;;;;;;;;5049404;28;20021;-74
2022/05/09 01:43:03;;;;;;;0.10;0.10;;;;;;;;;;5050352;28;20028;-74
2022/05/09 01:45:29;;;;;;;0.85;0.82;;;;;;;;;;5047778;28;20041;-74
2022/05/09 01:50:40;;;;;;;0.68;0.57;;;;;;;;;;5045208;28;20040;-74
2022/05/09 01:53:06;;;;;;;0.00;0.00;;;;;;;;;;5045722;28;20391;-74
2022/05/09 01:55:32;;;;;;;0.10;0.10;;;;;;;;;;5048351;28;20464;-74
2022/05/09 01:57:58;;;;;;;0.88;0.88;;;;;;;;;;5049772;28;20020;-74
2022/05/09 02:00:24;;;;;;;21.55;1.38;;;;;;;;;;5034771;28;20617;-74
2022/05/09 02:02:50;;;;;;;0.00;0.00;;;;;;;;;;5049313;28;20025;-74
2022/05/09 02:05:16;;;;;;;0.28;0.28;;;;;;;;;;5046208;28;20035;-75
2022/05/09 02:07:43;;;;;;;0.40;0.40;;;;;;;;;;5048898;28;20128;-74
2022/05/09 02:10:09;;;;;;;0.52;0.52;;;;;;;;;;5047575;28;20102;-74
2022/05/09 02:12:35;;;;;;;0.00;0.00;;;;;;;;;;5038997;28;20083;-74
2022/05/09 02:15:01;;;;;;;0.20;0.20;;;;;;;;;;5049116;28;20017;-74
2022/05/09 02:17:29;;;;;;;1.27;0.80;;;;;;;;;;5049710;28;20024;-74
2022/05/09 02:19:55;;;;;;;0.00;0.00;;;;;;;;;;5046167;28;20505;-74
2022/05/09 02:22:21;;;;;;;0.10;0.10;;;;;;;;;;5047175;28;20060;-74
2022/05/09 02:24:47;;;;;;;0.30;0.30;;;;;;;;;;5049146;28;20021;-74
2022/05/09 02:27:13;;;;;;;0.17;0.17;;;;;;;;;;5048556;28;20381;-73
2022/05/09 02:29:40;;;;;;;0.60;0.55;;;;;;;;;;5045434;28;20066;-75
2022/05/09 02:32:06;;;;;;;0.22;0.22;;;;;;;;;;5041132;28;20434;-74
2022/05/09 02:34:33;;;;;;;0.20;0.20;;;;;;;;;;5043457;28;20037;-74
2022/05/09 02:36:59;;;;;;;0.10;0.10;;;;;;;;;;5049419;28;20021;-74
2022/05/09 02:39:24;;;;;;;0.30;0.30;;;;;;;;;;5043806;28;20033;-74
2022/05/09 02:41:50;;;;;;;0.75;0.30;;;;;;;;;;5035398;28;20683;-74
2022/05/09 02:44:16;;;;;;;0.30;0.30;;;;;;;;;;5031485;28;20033;-74
2022/05/09 02:46:43;;;;;;;0.08;0.08;;;;;;;;;;5048686;28;20094;-74
2022/05/09 02:49:10;;;;;;;0.10;0.10;;;;;;;;;;5040809;28;20033;-74
2022/05/09 02:51:36;;;;;;;0.10;0.10;;;;;;;;;;5047566;28;20070;-75
2022/05/09 02:54:02;;;;;;;0.70;0.40;;;;;;;;;;5043365;28;20033;-74
2022/05/09 02:56:27;;;;;;;0.30;0.30;;;;;;;;;;5042537;28;20387;-74
2022/05/09 02:58:54;;;;;;;0.68;0.68;;;;;;;;;;5048091;28;20029;-74
2022/05/09 03:01:19;;;;;;;0.90;0.90;;;;;;;;;;5047829;28;20025;-74
2022/05/09 03:06:30;;;;;;;1.08;1.08;;;;;;;;;;5042009;28;20090;-74
2022/05/09 03:08:56;;;;;;;0.15;0.15;;;;;;;;;;5046423;28;20037;-74
2022/05/09 03:11:22;;;;;;;1.45;0.57;;;;;;;;;;5048717;28;20163;-74
2022/05/09 03:13:48;;;;;;;0.00;0.00;;;;;;;;;;5039317;28;20112;-74
2022/05/09 03:16:16;;;;;;;0.43;0.30;;;;;;;;;;5040573;28;20056;-74
2022/05/09 03:18:42;;;;;;;1.95;0.80;;;;;;;;;;5042643;28;20392;-74
2022/05/09 03:21:07;;;;;;;1.10;0.98;;;;;;;;;;5040888;28;20020;-74
2022/05/09 03:23:33;;;;;;;0.10;0.10;;;;;;;;;;5047214;28;20381;-73
2022/05/09 03:26:00;;;;;;;0.25;0.25;;;;;;;;;;5047025;28;20033;-74
2022/05/09 03:28:26;;;;;;;0.20;0.20;;;;;;;;;;5042505;28;20040;-73
2022/05/09 03:30:53;;;;;;;1.15;1.08;;;;;;;;;;5047926;28;20032;-74
2022/05/09 03:33:22;;;;;;;0.10;0.10;;;;;;;;;;5046545;28;20160;-74
2022/05/09 03:35:48;;;;;;;0.50;0.50;;;;;;;;;;5040835;28;21034;-74
2022/05/09 03:38:13;;;;;;;5.38;0.75;;;;;;;;;;5036249;28;20034;-74
2022/05/09 03:40:40;;;;;;;0.10;0.10;;;;;;;;;;5033543;28;20037;-74
2022/05/09 03:43:06;;;;;;;1.50;0.22;;;;;;;;;;5048268;28;20036;-74
2022/05/09 03:45:32;;;;;;;0.17;0.17;;;;;;;;;;5049042;28;20017;-74
2022/05/09 03:47:59;;;;;;;0.10;0.10;;;;;;;;;;5035923;28;20460;-74
2022/05/09 03:50:27;;;;;;;0.47;0.47;;;;;;;;;;5044241;28;20029;-73
2022/05/09 03:52:53;;;;;;;0.55;0.55;;;;;;;;;;5045170;28;20041;-74
2022/05/09 03:55:18;;;;;;;0.93;0.85;;;;;;;;;;5044245;28;20335;-74
2022/05/09 03:57:55;;;;;;;0.77;0.77;;;;;;;;;;5045973;28;20883;-74
2022/05/09 04:00:24;;;;;;;0.70;0.68;;;;;;;;;;5046381;28;20031;-74
2022/05/09 04:02:49;;;;;;;0.25;0.25;;;;;;;;;;5047174;28;20033;-74
2022/05/09 04:05:17;;;;;;;0.22;0.22;;;;;;;;;;5046855;28;20032;-74
2022/05/09 04:07:44;;;;;;;0.10;0.10;;;;;;;;;;5045244;28;20029;-74
2022/05/09 04:10:10;;;;;;;0.20;0.20;;;;;;;;;;5047599;28;20083;-74
2022/05/09 04:12:36;;;;;;;0.90;0.88;;;;;;;;;;5046221;28;20504;-74
2022/05/09 04:17:47;;;;;;;1.00;0.98;;;;;;;;;;5045045;28;20522;-74
2022/05/09 04:20:13;;;;;;;2.00;1.15;;;;;;;;;;5046283;28;20013;-74
2022/05/09 04:22:40;;;;;;;0.30;0.30;;;;;;;;;;5039653;28;20033;-74
2022/05/09 04:25:06;;;;;;;0.73;0.73;;;;;;;;;;5048521;28;20519;-74
2022/05/09 04:27:33;;;;;;;0.22;0.22;;;;;;;;;;5046388;28;20116;-75
2022/05/09 04:29:59;;;;;;;0.88;0.75;;;;;;;;;;5046381;28;20013;-74
2022/05/09 04:32:24;;;;;;;0.20;0.20;;;;;;;;;;5047414;28;20025;-74
2022/05/09 04:34:50;;;;;;;0.15;0.15;;;;;;;;;;5045938;28;20091;-74
2022/05/09 04:37:16;;;;;;;0.63;0.63;;;;;;;;;;5039705;28;20050;-74
2022/05/09 04:39:42;;;;;;;1.45;1.27;;;;;;;;;;5047633;28;20549;-74
2022/05/09 04:42:09;;;;;;;0.20;0.20;;;;;;;;;;5040335;28;20032;-75
2022/05/09 04:44:35;;;;;;;0.32;0.13;;;;;;;;;;5038847;28;20484;-74
2022/05/09 04:47:01;;;;;;;0.30;0.30;;;;;;;;;;5044854;28;20029;-74
2022/05/09 04:49:27;;;;;;;0.47;0.25;;;;;;;;;;5040967;28;20545;-74
2022/05/09 04:51:53;;;;;;;0.88;0.88;;;;;;;;;;5048550;28;20030;-74
2022/05/09 04:54:19;;;;;;;0.15;0.15;;;;;;;;;;5051196;28;20380;-74
2022/05/09 04:56:45;;;;;;;2.30;0.45;;;;;;;;;;5037125;28;20472;-74
2022/05/09 04:59:11;;;;;;;0.52;0.45;;;;;;;;;;5044615;28;20032;-74
2022/05/09 05:01:37;;;;;;;0.20;0.20;;;;;;;;;;5048777;28;21219;-74
2022/05/09 05:04:05;;;;;;;0.20;0.20;;;;;;;;;;5050955;28;20056;-74
2022/05/09 05:06:31;;;;;;;0.10;0.10;;;;;;;;;;5046921;28;20021;-76
2022/05/09 05:08:57;;;;;;;0.20;0.20;;;;;;;;;;5047456;28;20078;-76
2022/05/09 05:11:23;;;;;;;0.47;0.35;;;;;;;;;;5045516;28;20399;-76
2022/05/09 05:13:52;;;;;;;1.73;0.55;;;;;;;;;;5051159;28;20036;-76
2022/05/09 05:16:18;;;;;;;0.00;0.00;;;;;;;;;;5051321;28;20025;-76
2022/05/09 05:18:44;;;;;;;4.30;1.48;;;;;;;;;;5047940;28;20032;-76
2022/05/09 05:21:11;;;;;;;0.75;0.47;;;;;;;;;;5045813;28;20032;-80
2022/05/09 05:23:38;;;;;;;1.38;1.27;;;;;;;;;;5040707;28;20082;-80
2022/05/09 05:26:04;;;;;;;0.65;0.65;;;;;;;;;;5046569;28;20029;-78
2022/05/09 05:28:32;;;;;;;0.60;0.60;;;;;;;;;;5046613;28;20061;-79
2022/05/09 05:31:10;;;;;;;2.17;1.30;;;;;;;;;;5042770;28;20379;-76
2022/05/09 05:33:36;;;;;;;1.15;1.02;;;;;;;;;;5048155;28;20120;-77
2022/05/09 05:36:02;;;;;;;0.52;0.52;;;;;;;;;;5046872;28;20107;-74
2022/05/09 05:38:28;;;;;;;0.30;0.30;;;;;;;;;;5038676;28;20508;-73
2022/05/09 05:40:57;;;;;;;1.00;1.00;;;;;;;;;;5045250;28;20549;-77
2022/05/09 05:43:23;;;;;;;2.97;0.80;;;;;;;;;;5041113;28;20391;-80
2022/05/09 05:45:54;;;;;;;1.35;0.60;;;;;;;;;;5041353;28;20092;-77
2022/05/09 05:48:46;;;;;;;0.20;0.20;;;;;;;;;;5046158;28;20086;-78
2022/05/09 05:54:05;;;;;;;0.57;0.57;;;;;;;;;;5036397;28;20098;-81
2022/05/09 05:56:31;;;;;;;0.63;0.63;;;;;;;;;;5049139;28;20044;-81
2022/05/09 05:58:56;;;;;;;0.32;0.32;;;;;;;;;;5047370;28;20597;-76
2022/05/09 06:01:22;;;;;;;0.20;0.20;;;;;;;;;;5044745;28;20087;-77
2022/05/09 06:03:49;;;;;;;1.30;1.20;;;;;;;;;;5030507;28;20076;-76
2022/05/09 06:06:15;;;;;;;0.40;0.40;;;;;;;;;;5042053;28;20093;-77
2022/05/09 06:08:43;;;;;;;1.27;1.13;;;;;;;;;;5040989;28;20029;-77
2022/05/09 06:11:10;;;;;;;0.73;0.73;;;;;;;;;;5042654;28;20029;-77
2022/05/09 06:13:36;;;;;;;0.73;0.73;;;;;;;;;;5049938;28;20032;-73
2022/05/09 06:16:01;;;;;;;0.25;0.25;;;;;;;;;;5045730;28;20573;-74
2022/05/09 06:18:27;;;;;;;1.52;0.90;;;;;;;;;;5041909;28;20036;-75
2022/05/09 06:20:53;;;;;;;0.55;0.55;;;;;;;;;;5036885;28;20471;-74
2022/05/09 06:23:19;;;;;;;0.32;0.32;;;;;;;;;;5037330;28;20127;-75
2022/05/09 06:25:47;;;;;;;1.27;0.98;;;;;;;;;;5048179;28;20104;-75
2022/05/09 06:28:18;;;;;;;1.50;1.40;;;;;;;;;;5041052;28;20408;-75
2022/05/09 06:30:45;;;;;;;0.60;0.60;;;;;;;;;;5042511;28;20075;-73
2022/05/09 06:33:11;;;;;;;1.08;0.80;;;;;;;;;;5039016;28;20029;-74
2022/05/09 06:35:43;;;;;;;0.30;0.30;;;;;;;;;;5043817;28;20032;-73
2022/05/09 06:38:10;;;;;;;0.05;0.05;;;;;;;;;;5048223;28;20514;-75
2022/05/09 06:40:36;;;;;;;0.35;0.35;;;;;;;;;;5042252;28;20644;-74
2022/05/09 06:43:03;;;;;;;0.00;0.00;;;;;;;;;;5044676;28;20036;-75
2022/05/09 06:45:29;;;;;;;0.45;0.30;;;;;;;;;;5043489;28;20040;-75
2022/05/09 06:47:56;;;;;;;1.05;0.40;;;;;;;;;;5049633;28;20048;-75
2022/05/09 06:50:26;;;;;;;0.60;0.55;;;;;;;;;;5048710;28;20472;-75
2022/05/09 06:52:52;;;;;;;0.68;0.68;;;;;;;;;;5043384;28;20653;-73
2022/05/09 06:55:18;;;;;;;0.90;0.68;;;;;;;;;;5036843;28;20018;-74
2022/05/09 06:57:45;;;;;;;0.75;0.65;;;;;;;;;;5047150;28;20057;-75
2022/05/09 07:00:15;;;;;;;0.30;0.22;;;;;;;;;;5049804;28;20569;-75
2022/05/09 07:02:41;;;;;;;4.22;0.45;;;;;;;;;;5046152;28;20025;-79
2022/05/09 07:05:09;;;;;;;0.93;0.80;;;;;;;;;;5043146;28;20677;-80
2022/05/09 07:07:35;;;;;;;0.57;0.57;;;;;;;;;;5049952;28;20032;-78
2022/05/09 07:10:01;;;;;;;0.20;0.20;;;;;;;;;;5037829;28;20503;-89
2022/05/09 07:12:27;;;;;;;1.08;0.80;;;;;;;;;;5041494;28;20042;-86
2022/05/09 07:14:53;;;;;;;0.30;0.30;;;;;;;;;;5044637;28;20113;-76
2022/05/09 07:17:19;;;;;;;0.77;0.32;;;;;;;;;;5042177;28;20023;-78
2022/05/09 07:19:45;;;;;;;0.38;0.38;;;;;;;;;;5025541;28;20407;-76
2022/05/09 07:22:11;;;;;;;0.50;0.50;;;;;;;;;;5034258;28;20021;-77
2022/05/09 07:24:37;;;;;;;0.60;0.60;;;;;;;;;;5047485;28;20025;-76
2022/05/09 07:27:03;;;;;;;0.47;0.40;;;;;;;;;;5043792;28;20055;-74
2022/05/09 07:29:29;;;;;;;0.28;0.28;;;;;;;;;;5031116;28;20056;-75
2022/05/09 07:31:55;;;;;;;0.82;0.82;;;;;;;;;;5044406;28;20467;-76
2022/05/09 07:34:21;;;;;;;0.88;0.88;;;;;;;;;;5031880;28;20030;-76
2022/05/09 07:36:47;;;;;;;0.28;0.28;;;;;;;;;;5038150;28;20017;-76
2022/05/09 07:39:13;;;;;;;0.80;0.68;;;;;;;;;;5030578;28;20025;-75
2022/05/09 07:41:39;;;;;;;0.45;0.45;;;;;;;;;;5041937;28;20133;-75
2022/05/09 07:44:05;;;;;;;0.22;0.20;;;;;;;;;;5044914;28;20025;-76
2022/05/09 07:46:31;;;;;;;0.55;0.55;;;;;;;;;;5041816;28;20107;-75
2022/05/09 07:48:57;;;;;;;0.75;0.75;;;;;;;;;;5031938;28;20506;-76
2022/05/09 07:51:23;;;;;;;1.13;0.60;;;;;;;;;;5041855;28;20032;-77
2022/05/09 07:53:48;;;;;;;0.50;0.35;;;;;;;;;;5038250;28;20392;-74
2022/05/09 07:56:14;;;;;;;2.42;0.57;;;;;;;;;;5029625;28;20049;-75
2022/05/09 07:58:40;;;;;;;1.65;0.73;;;;;;;;;;5028738;28;20033;-75
2022/05/09 08:01:06;;;;;;;1.00;0.85;;;;;;;;;;5034312;28;20029;-75
2022/05/09 08:03:34;;;;;;;1.20;1.08;;;;;;;;;;5047640;28;20068;-75
2022/05/09 08:06:00;;;;;;;0.63;0.60;;;;;;;;;;5047098;28;20319;-76
2022/05/09 08:08:28;;;;;;;0.75;0.68;;;;;;;;;;5048132;28;20057;-75
2022/05/09 08:10:55;;;;;;;0.50;0.50;;;;;;;;;;5047269;28;20036;-75
2022/05/09 08:13:21;;;;;;;0.43;0.43;;;;;;;;;;5046794;28;20071;-75
2022/05/09 08:15:48;;;;;;;1.45;0.80;;;;;;;;;;5035590;28;20053;-75
2022/05/09 08:18:14;;;;;;;0.40;0.40;;;;;;;;;;5044410;28;20265;-76
2022/05/09 08:20:43;;;;;;;0.68;0.68;;;;;;;;;;5046547;28;20064;-75
2022/05/09 08:23:11;;;;;;;1.00;0.98;;;;;;;;;;5043602;28;20032;-76
2022/05/09 08:25:38;;;;;;;8.75;1.75;;;;;;;;;;5047336;28;20033;-74
2022/05/09 08:28:05;;;;;;;0.43;0.43;;;;;;;;;;5049670;28;20037;-75
2022/05/09 08:30:33;;;;;;;0.50;0.40;;;;;;;;;;5036657;28;20041;-75
2022/05/09 08:32:59;;;;;;;0.47;0.47;;;;;;;;;;5049058;28;20029;-75
2022/05/09 08:35:25;;;;;;;0.35;0.35;;;;;;;;;;5050424;28;20025;-76
2022/05/09 08:37:51;;;;;;;0.65;0.50;;;;;;;;;;5044265;28;20020;-75
2022/05/09 08:40:20;;;;;;;0.13;0.13;;;;;;;;;;5042910;28;20464;-76
2022/05/09 08:42:49;;;;;;;0.52;0.50;;;;;;;;;;5037489;28;20025;-76
2022/05/09 08:45:22;;;;;;;0.28;0.28;;;;;;;;;;5051748;28;20032;-75
2022/05/09 08:48:11;;;;;;;1.33;0.65;;;;;;;;;;5049966;28;20052;-76
2022/05/09 08:50:55;;;;;;;0.47;0.30;;;;;;;;;;5046755;28;20079;-76
2022/05/09 08:53:23;;;;;;;1.08;0.70;;;;;;;;;;5044339;28;20028;-76
2022/05/09 08:55:51;;;;;;;2.35;0.95;;;;;;;;;;5051444;28;20037;-75
2022/05/09 08:58:40;;;;;;;0.25;0.17;;;;;;;;;;5049473;28;20285;-76
2022/05/09 09:01:16;;;;;;;0.10;0.10;;;;;;;;;;5047875;28;20047;-76
2022/05/09 09:04:02;;;;;;;1.23;0.55;;;;;;;;;;5046521;28;20048;-74
2022/05/09 09:06:54;;;;;;;1.17;1.10;;;;;;;;;;5042179;28;20388;-75
2022/05/09 09:09:32;;;;;;;0.00;0.00;;;;;;;;;;5051269;28;20117;-75
2022/05/09 09:12:13;;;;;;;0.47;0.47;;;;;;;;;;5043462;28;20059;-74
2022/05/09 09:14:56;;;;;;;0.85;0.85;;;;;;;;;;5051392;28;20035;-74
2022/05/09 09:17:28;;;;;;;0.30;0.30;;;;;;;;;;5041389;28;20060;-75
2022/05/09 09:20:16;;;;;;;0.38;0.38;;;;;;;;;;5038077;28;20672;-74
2022/05/09 09:22:51;;;;;;;0.52;0.52;;;;;;;;;;5047426;28;20432;-74
2022/05/09 09:25:17;;;;;;;0.20;0.20;;;;;;;;;;5050982;28;20068;-75
2022/05/09 09:27:45;;;;;;;4.90;0.32;;;;;;;;;;5046372;28;20106;-75
2022/05/09 09:30:13;;;;;;;0.03;0.03;;;;;;;;;;5048939;28;20056;-75
2022/05/09 09:32:40;;;;;;;0.08;0.08;;;;;;;;;;5046677;28;20108;-74
2022/05/09 09:35:12;;;;;;;0.77;0.47;;;;;;;;;;5039423;28;20032;-74
2022/05/09 09:38:00;;;;;;;0.85;0.55;;;;;;;;;;5044887;28;20024;-75
2022/05/09 09:40:26;;;;;;;1.50;0.85;;;;;;;;;;5037312;28;20029;-75
2022/05/09 09:42:53;;;;;;;6.63;1.50;;;;;;;;;;5047767;28;20090;-75
2022/05/09 09:45:44;;;;;;;1.77;0.68;;;;;;;;;;5044343;28;20119;-76
2022/05/09 09:48:10;;;;;;;0.10;0.10;;;;;;;;;;5035968;28;20116;-74
2022/05/09 09:50:36;;;;;;;2.25;1.38;;;;;;;;;;5045659;28;20227;-74
2022/05/09 09:53:02;;;;;;;0.98;0.47;;;;;;;;;;5038903;28;20029;-74
2022/05/09 09:55:28;;;;;;;0.68;0.47;;;;;;;;;;5049352;28;20642;-73
2022/05/09 09:57:55;;;;;;;0.57;0.47;;;;;;;;;;5048021;28;20167;-74
2022/05/09 10:00:39;;;;;;;11.90;0.68;;;;;;;;;;5050350;28;20025;-74
2022/05/09 10:03:22;;;;;;;1.40;0.85;;;;;;;;;;5042326;28;20118;-74
2022/05/09 10:05:50;;;;;;;1.85;1.20;;;;;;;;;;5049185;28;20043;-74
2022/05/09 10:08:34;;;;;;;0.08;0.08;;;;;;;;;;5038882;28;20442;-74
2022/05/09 10:11:03;;;;;;;0.40;0.40;;;;;;;;;;5044380;28;20391;-74
2022/05/09 10:13:35;;;;;;;0.32;0.32;;;;;;;;;;5043371;28;20047;-74
2022/05/09 10:16:02;;;;;;;1.17;0.57;;;;;;;;;;5042768;28;20103;-74
2022/05/09 10:18:34;;;;;;;1.13;0.68;;;;;;;;;;5035697;28;20112;-74
2022/05/09 10:21:01;;;;;;;0.70;0.70;;;;;;;;;;5041912;28;20029;-75
2022/05/09 10:26:24;;;;;;;1.95;0.45;;;;;;;;;;5045509;28;20403;-74
2022/05/09 10:28:53;;;;;;;0.47;0.47;;;;;;;;;;5040620;28;20470;-75
2022/05/09 10:31:23;;;;;;;0.28;0.28;;;;;;;;;;5039541;28;20492;-75
2022/05/09 10:33:59;;;;;;;0.43;0.43;;;;;;;;;;5044975;28;20055;-74
2022/05/09 10:36:31;;;;;;;1.15;0.60;;;;;;;;;;5041961;28;20049;-74
2022/05/09 10:39:03;;;;;;;2.88;0.47;;;;;;;;;;5047308;28;20129;-77
2022/05/09 10:41:40;;;;;;;0.40;0.32;;;;;;;;;;5038376;28;20035;-78
2022/05/09 10:44:29;;;;;;;0.60;0.60;;;;;;;;;;5045034;28;20762;-73
2022/05/09 10:47:00;;;;;;;0.90;0.43;;;;;;;;;;5047537;28;20029;-74
2022/05/09 10:49:30;;;;;;;0.65;0.65;;;;;;;;;;5046435;28;20037;-76
2022/05/09 10:52:08;;;;;;;0.40;0.40;;;;;;;;;;5040358;28;20025;-74
2022/05/09 10:54:43;;;;;;;0.70;0.60;;;;;;;;;;5041060;28;20392;-76
2022/05/09 10:57:16;;;;;;;2.17;0.88;;;;;;;;;;5046595;28;20032;-74
2022/05/09 10:59:44;;;;;;;0.50;0.50;;;;;;;;;;5035395;28;20029;-75
2022/05/09 11:02:25;;;;;;;0.00;0.00;;;;;;;;;;5044217;28;20029;-75
2022/05/09 11:04:51;;;;;;;0.90;0.43;;;;;;;;;;5044208;28;20053;-74
2022/05/09 11:07:20;;;;;;;0.52;0.45;;;;;;;;;;5049506;28;20372;-75
2022/05/09 11:09:50;;;;;;;0.22;0.22;;;;;;;;;;5043236;28;20818;-75
2022/05/09 11:12:29;;;;;;;0.40;0.40;;;;;;;;;;5046179;28;20032;-76
2022/05/09 11:15:04;;;;;;;1.17;1.00;;;;;;;;;;5048325;28;20115;-75
2022/05/09 11:17:45;;;;;;;1.50;0.55;;;;;;;;;;5044060;28;20017;-76
2022/05/09 11:20:17;;;;;;;0.20;0.20;;;;;;;;;;5044629;28;20045;-75
2022/05/09 11:22:48;;;;;;;0.65;0.43;;;;;;;;;;5038401;28;20098;-75
2022/05/09 11:25:21;;;;;;;0.30;0.30;;;;;;;;;;5036655;28;20673;-75
2022/05/09 11:27:55;;;;;;;0.10;0.10;;;;;;;;;;5035259;28;20097;-76
2022/05/09 11:30:29;;;;;;;1.45;0.20;;;;;;;;;;5043457;28;20029;-75
2022/05/09 11:33:00;;;;;;;0.25;0.25;;;;;;;;;;5035723;28;20037;-75
2022/05/09 11:35:28;;;;;;;6.35;0.43;;;;;;;;;;5036233;28;20059;-75
2022/05/09 11:38:13;;;;;;;0.90;0.80;;;;;;;;;;5046280;28;20025;-76
2022/05/09 11:40:56;;;;;;;0.50;0.45;;;;;;;;;;5043454;28;20579;-75
2022/05/09 11:43:29;;;;;;;0.20;0.20;;;;;;;;;;5041601;28;20025;-75
2022/05/09 11:46:04;;;;;;;4.90;1.05;;;;;;;;;;5046621;28;20025;-73
2022/05/09 11:48:38;;;;;;;0.55;0.52;;;;;;;;;;5035471;28;20088;-74
2022/05/09 11:51:22;;;;;;;0.30;0.30;;;;;;;;;;5037228;28;20029;-73
2022/05/09 11:53:50;;;;;;;3.80;0.80;;;;;;;;;;5044068;28;20037;-73
2022/05/09 11:56:16;;;;;;;0.80;0.52;;;;;;;;;;5046087;28;20387;-75
2022/05/09 11:58:43;;;;;;;0.63;0.63;;;;;;;;;;5042222;28;20491;-73
2022/05/09 12:01:09;;;;;;;2.28;1.20;;;;;;;;;;5045862;28;20031;-75
2022/05/09 12:03:41;;;;;;;0.40;0.30;;;;;;;;;;5043467;28;20048;-73
2022/05/09 12:06:27;;;;;;;0.40;0.40;;;;;;;;;;5032326;28;20033;-73
2022/05/09 12:08:56;;;;;;;0.57;0.57;;;;;;;;;;5036593;28;20106;-73
2022/05/09 12:11:30;;;;;;;0.82;0.75;;;;;;;;;;5038634;28;20033;-73
2022/05/09 12:13:57;;;;;;;2.45;0.40;;;;;;;;;;5045898;28;20079;-74
2022/05/09 12:16:35;;;;;;;1.60;0.47;;;;;;;;;;5046263;28;20044;-75
2022/05/09 12:19:03;;;;;;;0.30;0.30;;;;;;;;;;5042054;28;20029;-78
2022/05/09 12:21:32;;;;;;;0.35;0.30;;;;;;;;;;5049874;28;20037;-76
2022/05/09 12:24:10;;;;;;;0.15;0.15;;;;;;;;;;5043186;28;20497;-75
2022/05/09 12:26:37;;;;;;;0.20;0.15;;;;;;;;;;5041352;28;20029;-74
2022/05/09 12:29:11;;;;;;;0.63;0.63;;;;;;;;;;5039128;28;20026;-75
2022/05/09 12:31:41;;;;;;;0.47;0.47;;;;;;;;;;5041619;28;20109;-75
2022/05/09 12:34:09;;;;;;;0.65;0.63;;;;;;;;;;5043359;28;20094;-75
2022/05/09 12:36:38;;;;;;;0.20;0.20;;;;;;;;;;5042389;28;20120;-75
2022/05/09 12:39:09;;;;;;;2.55;1.17;;;;;;;;;;5037434;28;20033;-76
2022/05/09 12:41:51;;;;;;;0.10;0.10;;;;;;;;;;5039495;28;20030;-76
2022/05/09 12:44:23;;;;;;;17.90;0.80;;;;;;;;;;5036666;28;20033;-76
2022/05/09 12:47:00;;;;;;;5.68;0.65;;;;;;;;;;5048552;28;20040;-75
2022/05/09 12:49:28;;;;;;;0.25;0.25;;;;;;;;;;5047523;28;20032;-76
2022/05/09 12:51:56;;;;;;;0.98;0.60;;;;;;;;;;5043421;28;20687;-76
2022/05/09 12:54:23;;;;;;;1.02;0.65;;;;;;;;;;5046451;28;20065;-77
2022/05/09 12:56:52;;;;;;;1.70;1.15;;;;;;;;;;5044916;28;20116;-76
2022/05/09 12:59:19;;;;;;;0.80;0.65;;;;;;;;;;5045414;28;20649;-76
2022/05/09 13:01:52;;;;;;;0.40;0.40;;;;;;;;;;5035467;28;20025;-76
2022/05/09 13:04:18;;;;;;;0.35;0.35;;;;;;;;;;5039896;28;20753;-75
2022/05/09 13:06:45;;;;;;;0.20;0.20;;;;;;;;;;5046548;28;20028;-76
2022/05/09 13:09:16;;;;;;;2.08;0.40;;;;;;;;;;5046279;28;20029;-76
2022/05/09 13:11:46;;;;;;;2.55;1.20;;;;;;;;;;5044225;28;20112;-75
2022/05/09 13:14:17;;;;;;;0.20;0.20;;;;;;;;;;5050401;28;20107;-77
2022/05/09 13:16:54;;;;;;;0.40;0.40;;;;;;;;;;5049082;28;20120;-75
2022/05/09 13:19:20;;;;;;;1.55;1.13;;;;;;;;;;5047926;28;20025;-75
2022/05/09 13:21:48;;;;;;;0.43;0.43;;;;;;;;;;5054812;28;20032;-76
2022/05/09 13:24:16;;;;;;;0.10;0.10;;;;;;;;;;5049414;28;20098;-75
2022/05/09 13:26:50;;;;;;;0.77;0.60;;;;;;;;;;5047516;28;20032;-76
2022/05/09 13:29:23;;;;;;;0.30;0.30;;;;;;;;;;5057043;28;21013;-76
2022/05/09 13:31:51;;;;;;;0.55;0.55;;;;;;;;;;5046954;28;20029;-75
2022/05/09 13:34:21;;;;;;;0.35;0.35;;;;;;;;;;5050025;28;20037;-75
2022/05/09 13:36:48;;;;;;;0.43;0.43;;;;;;;;;;5044109;28;20024;-75
2022/05/09 13:39:25;;;;;;;7.13;1.75;;;;;;;;;;5050485;28;20047;-75
2022/05/09 13:41:51;;;;;;;0.40;0.40;;;;;;;;;;5049500;28;20104;-75
2022/05/09 13:44:20;;;;;;;0.47;0.47;;;;;;;;;;5042493;28;20484;-76
2022/05/09 13:46:47;;;;;;;0.95;0.85;;;;;;;;;;5044376;28;20021;-76
2022/05/09 13:49:14;;;;;;;0.22;0.22;;;;;;;;;;5044447;28;20029;-76
2022/05/09 13:51:42;;;;;;;0.30;0.30;;;;;;;;;;5037245;28;20228;-75
2022/05/09 13:54:09;;;;;;;0.38;0.38;;;;;;;;;;5046454;28;20025;-75
2022/05/09 13:56:36;;;;;;;0.30;0.30;;;;;;;;;;5043005;28;20075;-75
2022/05/09 13:59:06;;;;;;;0.70;0.35;;;;;;;;;;5041958;28;20021;-75
2022/05/09 14:01:44;;;;;;;0.87;0.60;;;;;;;;;;5035161;28;20052;-76
2022/05/09 14:04:13;;;;;;;0.45;0.43;;;;;;;;;;5044219;28;20292;-74
2022/05/09 14:06:39;;;;;;;0.43;0.43;;;;;;;;;;5038618;28;20451;-76
2022/05/09 14:09:10;;;;;;;0.40;0.32;;;;;;;;;;5048077;28;20107;-75
2022/05/09 14:11:38;;;;;;;1.65;0.85;;;;;;;;;;5044440;28;20027;-73
2022/05/09 14:14:06;;;;;;;0.40;0.40;;;;;;;;;;5049377;28;20025;-72
2022/05/09 14:16:35;;;;;;;1.73;1.17;;;;;;;;;;5049600;28;20419;-76
2022/05/09 14:19:04;;;;;;;0.55;0.55;;;;;;;;;;5037298;28;20432;-75
2022/05/09 14:21:44;;;;;;;16.95;0.73;;;;;;;;;;5044445;28;20028;-75
2022/05/09 14:24:11;;;;;;;0.40;0.37;;;;;;;;;;5044190;28;20036;-75
2022/05/09 14:29:38;;;;;;;1.77;0.60;;;;;;;;;;5041937;28;20557;-75
2022/05/09 14:32:06;;;;;;;0.40;0.40;;;;;;;;;;5046152;28;20036;-75
2022/05/09 14:34:35;;;;;;;2.72;1.02;;;;;;;;;;5041695;28;20492;-75
2022/05/09 14:37:27;;;;;;;0.63;0.55;;;;;;;;;;5048337;28;20033;-75
2022/05/09 14:40:00;;;;;;;0.63;0.52;;;;;;;;;;5045580;28;20470;-75
2022/05/09 14:42:32;;;;;;;0.43;0.40;;;;;;;;;;5046801;28;20032;-75
2022/05/09 14:45:03;;;;;;;0.40;0.28;;;;;;;;;;5047871;28;20558;-74
2022/05/09 14:47:32;;;;;;;0.20;0.20;;;;;;;;;;5041163;28;20029;-75
2022/05/09 14:50:09;;;;;;;0.75;0.75;;;;;;;;;;5047328;28;20029;-82
2022/05/09 14:52:37;;;;;;;0.73;0.73;;;;;;;;;;5046383;28;20021;-77
2022/05/09 14:57:54;;;;;;;2.50;0.40;;;;;;;;;;5047040;28;20118;-74
2022/05/09 15:00:26;;;;;;;3.83;1.67;;;;;;;;;;5042945;28;20690;-75
2022/05/09 15:02:56;;;;;;;3.33;0.98;;;;;;;;;;5044974;28;20385;-74
2022/05/09 15:05:22;;;;;;;1.35;0.77;;;;;;;;;;5044433;28;20120;-75
2022/05/09 15:07:48;;;;;;;0.75;0.52;;;;;;;;;;5047757;28;20163;-75
2022/05/09 15:10:14;;;;;;;0.25;0.25;;;;;;;;;;5035918;28;20349;-75
2022/05/09 15:12:43;;;;;;;0.30;0.30;;;;;;;;;;5041993;28;20048;-77
2022/05/09 15:15:09;;;;;;;2.42;0.98;;;;;;;;;;5047491;28;20472;-76